Karl Stefan Memorial Airport
KOFK : now visible

Airfield :











YOU CAN JOIN US ON...

 
LOGIN :

Register | Disclaimer

   EN    FR    IT 

 









Legend :    VFR   Marginal VFR   IFR   Intensive IFR   Very Intensive IFR
Visi :
Ceiling :
>= 8 km
>= 3000ft
5 to 8 km
1000 to 3000 ft
1500m to 5 km
500 to 1000 ft
800 to 1500m
200 to 500 ft
< 800m
< 200 ft
Symbols :   Thunderstorms  Fog  Heavy snow  Heavy precipitations  Wind > 20 kt







- Airport Elevation : 1573 ft


KOFK - Karl Stefan Memorial

CURRENT METAR :
  • 201956Z AUTO 16017G29KT 10SM FEW048 30/19 A2987 RMK AO2 PK WND 15031/1945 SLP101 T03000189

EXPIRED METARs :
  • 201856Z AUTO 16015G23KT 10SM CLR 31/18 A2990 RMK AO2 PK WND 18028/1836 SLP108 T03060183
  • 201756Z AUTO 15016G25KT 10SM CLR 28/19 A2993 RMK AO2 SLP120 T02830194 10294 20211 58012

TAF KOFK
Valid from the 20 at 18:00 until the 21 at 18:00 UTC


201720Z 2018/2118 16014G22KT P6SM SCT040 BKN250
FM210000 16014KT P6SM BKN150
FM210500 17014KT P6SM BKN025
PROB30 2105/2111 4SM TSRA BR OVC015CB
FM211600 22012KT P6SM SCT200
No reported NOTAMs for that airfield.



MET'MAP, your aeronautical weather chart ! - Copyright ORBIFLY December 2007 - Disclaimer

ORBIFLY MET'MAP TEAM :

Programming & Development : Alexandra Zaïnal
Concept & Development : Baudouin d'Aumeries
Co-Development & Prog : Marc-Olivier Méhu
Technical & hardware support : Manuel Goepfert

Contact : metmap@orbifly.com




SOURCES & CREDITS :

   NOAA       Earth
Advisory